Time;durP1;ratioP1;P1;durP2;ratioP2;P2;SDS_P1;SDS_P2;PMS_P1;PMS_P2;Temp;Humidity;BMP_temperature;BMP_pressure;BME280_temperature;BME280_humidity;BME280_pressure;Samples;Min_cycle;Max_cycle;Signal;HPM_P1;HPM_P2
2022/09/20 00:00:06;;;;;;;;;13.00;12.00;;;;;14.64;64.32;98481.06;6261348;27;98067;-62
2022/09/20 00:03:14;;;;;;;;;15.00;14.00;;;;;14.76;64.04;98491.75;6261209;27;96842;-64
2022/09/20 00:06:20;;;;;;;;;18.00;15.00;;;;;14.74;64.05;98492.00;6249659;27;97505;-63
2022/09/20 00:09:23;;;;;;;;;15.00;12.00;;;;;14.67;64.23;98481.34;6245663;27;98183;-64
2022/09/20 00:12:28;;;;;;;;;14.00;13.00;;;;;14.78;64.28;98495.81;6261676;27;98077;-63
2022/09/20 00:15:32;;;;;;;;;15.40;14.40;;;;;14.85;63.93;98501.06;6243316;27;98361;-64
2022/09/20 00:18:36;;;;;;;;;17.60;16.80;;;;;14.89;64.00;98494.03;6259719;27;97919;-62
2022/09/20 00:21:39;;;;;;;;;17.00;15.00;;;;;14.87;64.08;98505.13;6262224;27;96646;-63
2022/09/20 00:24:42;;;;;;;;;18.00;17.00;;;;;14.99;63.67;98502.25;6252786;27;96771;-64
2022/09/20 00:27:52;;;;;;;;;18.00;14.60;;;;;15.00;63.61;98506.63;6261769;27;97119;-64
2022/09/20 00:30:56;;;;;;;;;16.50;16.00;;;;;14.97;63.79;98504.41;6262249;27;97094;-63
2022/09/20 00:37:21;;;;;;;;;15.80;15.00;;;;;14.95;63.70;98496.53;6244993;27;97117;-62
2022/09/20 00:40:26;;;;;;;;;18.50;16.00;;;;;14.95;63.67;98501.13;6261187;27;97436;-63
2022/09/20 00:43:39;;;;;;;;;15.75;15.00;;;;;14.99;63.74;98502.25;6261685;27;96793;-63
2022/09/20 00:46:45;;;;;;;;;15.00;13.00;;;;;14.80;63.57;98482.00;6257459;27;97185;-62
2022/09/20 00:49:51;;;;;;;;;16.00;15.40;;;;;14.98;63.77;98506.03;6236879;27;100221;-63
2022/09/20 00:52:58;;;;;;;;;16.75;14.75;;;;;15.03;63.70;98503.38;6261259;27;96451;-63
2022/09/20 00:56:05;;;;;;;;;17.00;15.00;;;;;15.06;63.53;98510.97;6261292;27;97522;-63
2022/09/20 00:59:16;;;;;;;;;16.40;14.00;;;;;15.08;63.51;98500.69;6259876;27;98040;-63
2022/09/20 01:02:23;;;;;;;;;17.00;15.00;;;;;15.08;63.56;98506.13;6259971;27;97535;-64
2022/09/20 01:05:27;;;;;;;;;17.25;15.25;;;;;15.07;63.68;98505.31;6261450;27;96690;-64
2022/09/20 01:08:32;;;;;;;;;16.80;15.00;;;;;15.12;63.63;98499.91;6260330;27;96808;-63
2022/09/20 01:11:36;;;;;;;;;17.00;16.00;;;;;15.16;63.56;98501.03;6259638;27;97522;-62
2022/09/20 01:14:44;;;;;;;;;16.40;16.40;;;;;15.23;63.61;98508.13;6242023;27;97794;-62
2022/09/20 01:17:52;;;;;;;;;17.00;15.40;;;;;15.13;63.34;98492.59;6230127;27;98365;-63
2022/09/20 01:20:57;;;;;;;;;19.33;17.00;;;;;15.19;63.57;98507.84;6261012;27;97009;-63
2022/09/20 01:24:10;;;;;;;;;17.60;16.00;;;;;15.18;63.68;98496.16;6260320;27;97335;-63
2022/09/20 01:27:18;;;;;;;;;22.00;20.40;;;;;15.09;63.80;98483.34;6243973;27;97344;-63
2022/09/20 01:30:25;;;;;;;;;19.00;18.00;;;;;15.24;63.45;98507.88;6254451;27;97769;-63
2022/09/20 01:33:38;;;;;;;;;18.00;17.00;;;;;15.34;63.44;98498.97;6260246;27;97109;-62
2022/09/20 01:36:47;;;;;;;;;18.00;16.00;;;;;15.39;63.25;98507.16;6246004;27;97870;-62
2022/09/20 01:39:58;;;;;;;;;20.33;17.33;;;;;15.36;63.25;98499.53;6260916;27;97518;-63
2022/09/20 01:43:11;;;;;;;;;15.40;14.80;;;;;15.32;63.40;98495.69;6260588;27;97453;-63
2022/09/20 01:46:28;;;;;;;;;21.00;19.00;;;;;15.35;63.38;98498.69;6257265;27;97456;-63
2022/09/20 01:49:44;;;;;;;;;21.00;18.40;;;;;15.35;63.31;98489.72;6258950;27;96579;-62
2022/09/20 01:53:21;;;;;;;;;20.00;18.00;;;;;15.31;63.45;98500.31;6239851;27;98573;-63
2022/09/20 01:56:53;;;;;;;;;17.00;16.60;;;;;15.42;63.32;98503.91;6237840;27;98710;-64
2022/09/20 02:00:06;;;;;;;;;18.80;16.00;;;;;15.46;63.25;98507.75;6258713;27;96422;-63
2022/09/20 02:03:39;;;;;;;;;19.00;18.00;;;;;15.41;63.30;98502.28;6237358;27;96668;-62
2022/09/20 02:07:11;;;;;;;;;22.60;20.00;;;;;15.41;63.35;98513.13;6255603;27;96555;-62
2022/09/20 02:10:40;;;;;;;;;19.00;18.00;;;;;15.45;63.43;98506.09;6260146;27;97452;-63
2022/09/20 02:14:28;;;;;;;;;18.00;18.00;;;;;15.41;63.38;98511.25;6258981;27;96755;-63
2022/09/20 02:17:43;;;;;;;;;21.00;19.00;;;;;15.37;63.66;98517.47;6250677;27;97425;-64
2022/09/20 02:20:52;;;;;;;;;19.00;18.50;;;;;15.40;63.42;98514.22;6256374;27;99046;-64
2022/09/20 02:24:07;;;;;;;;;19.00;18.20;;;;;15.39;63.52;98509.88;6237966;27;97046;-63
2022/09/20 02:27:24;;;;;;;;;18.00;18.00;;;;;15.42;63.48;98520.22;6261247;27;96918;-63
2022/09/20 02:30:41;;;;;;;;;19.00;18.00;;;;;15.39;63.43;98518.84;6262161;27;97494;-64
2022/09/20 02:34:03;;;;;;;;;18.20;18.00;;;;;15.38;63.47;98522.63;6253290;27;96841;-64
2022/09/20 02:37:24;;;;;;;;;17.00;17.00;;;;;15.28;63.63;98513.59;6260522;27;97146;-63
2022/09/20 02:40:46;;;;;;;;;20.20;19.00;;;;;15.31;63.71;98523.94;6243230;27;97777;-63
2022/09/20 02:43:58;;;;;;;;;20.40;19.40;;;;;15.30;63.79;98535.88;6262308;27;96414;-63
2022/09/20 02:47:10;;;;;;;;;18.00;17.00;;;;;15.22;63.68;98504.59;6242973;27;96620;-63
2022/09/20 02:50:28;;;;;;;;;22.40;18.00;;;;;15.34;63.77;98535.13;6261285;27;97189;-63
2022/09/20 02:53:42;;;;;;;;;17.00;16.20;;;;;15.36;63.73;98530.22;6256155;27;98100;-62
2022/09/20 02:56:54;;;;;;;;;18.80;17.80;;;;;15.41;63.86;98532.97;6261575;27;97287;-63
2022/09/20 03:00:04;;;;;;;;;19.20;18.00;;;;;15.46;63.31;98537.63;6263164;27;97324;-63
2022/09/20 03:03:19;;;;;;;;;18.60;17.00;;;;;15.40;63.43;98536.75;6243791;27;97776;-63
2022/09/20 03:06:33;;;;;;;;;18.60;17.00;;;;;15.37;63.64;98541.91;6233122;28;97886;-63
2022/09/20 03:09:46;;;;;;;;;18.80;18.20;;;;;15.32;63.60;98541.88;6258851;27;97609;-62
2022/09/20 03:13:03;;;;;;;;;17.00;15.00;;;;;15.32;63.53;98548.13;6230208;28;97837;-62
2022/09/20 03:16:16;;;;;;;;;17.40;17.00;;;;;15.35;63.63;98538.63;6241720;27;97316;-63
2022/09/20 03:19:36;;;;;;;;;17.80;17.00;;;;;15.41;63.38;98537.59;6238884;27;96619;-64
2022/09/20 03:22:54;;;;;;;;;18.00;17.00;;;;;15.32;63.46;98539.16;6243233;27;96702;-63
2022/09/20 03:26:12;;;;;;;;;18.40;17.40;;;;;15.29;63.61;98548.66;6247997;27;97478;-64
2022/09/20 03:29:32;;;;;;;;;18.00;16.60;;;;;15.15;63.68;98537.38;6261972;27;97431;-63
2022/09/20 03:32:52;;;;;;;;;22.25;20.25;;;;;15.08;64.10;98544.94;6260657;27;97559;-62
2022/09/20 03:36:08;;;;;;;;;20.00;17.50;;;;;15.21;63.77;98549.13;6259924;27;97096;-63
2022/09/20 03:39:37;;;;;;;;;19.00;16.00;;;;;15.29;63.63;98553.25;6244347;27;96664;-63
2022/09/20 03:42:47;;;;;;;;;19.00;17.80;;;;;15.32;63.43;98552.72;6219630;27;96732;-62
2022/09/20 03:46:06;;;;;;;;;20.20;17.00;;;;;15.23;63.74;98548.88;6251250;27;97145;-63
2022/09/20 03:49:49;;;;;;;;;19.00;17.60;;;;;15.20;63.60;98560.25;6256559;27;96846;-64
2022/09/20 03:53:09;;;;;;;;;17.00;15.60;;;;;15.21;63.92;98559.16;6225543;27;99633;-64
2022/09/20 03:56:43;;;;;;;;;18.60;17.60;;;;;15.28;63.58;98563.31;6259869;27;96962;-63
2022/09/20 04:00:07;;;;;;;;;21.40;19.20;;;;;15.31;63.52;98562.78;6208281;27;96531;-62
2022/09/20 04:03:43;;;;;;;;;20.00;19.60;;;;;15.28;63.60;98562.47;6218357;27;97182;-62
2022/09/20 04:07:05;;;;;;;;;18.00;16.40;;;;;15.22;63.67;98571.66;6220362;27;97963;-62
2022/09/20 04:10:27;;;;;;;;;19.00;17.00;;;;;15.27;63.52;98572.53;6260860;27;96744;-63
2022/09/20 04:13:36;;;;;;;;;18.40;17.00;;;;;15.25;63.46;98571.97;6262798;27;97488;-62
2022/09/20 04:16:48;;;;;;;;;20.80;17.00;;;;;15.31;63.48;98579.06;6263250;27;97279;-63
2022/09/20 04:20:02;;;;;;;;;19.80;18.20;;;;;15.36;63.36;98583.72;6243645;27;96900;-63
2022/09/20 04:23:18;;;;;;;;;16.00;14.00;;;;;15.32;63.04;98578.00;6259673;27;96443;-63
2022/09/20 04:26:26;;;;;;;;;16.00;16.00;;;;;15.29;63.20;98569.56;6250282;27;97324;-63
2022/09/20 04:29:36;;;;;;;;;18.00;15.40;;;;;15.33;63.26;98589.69;6247615;27;96604;-64
2022/09/20 04:32:47;;;;;;;;;18.40;16.60;;;;;15.25;63.17;98585.53;6244721;27;97428;-62
2022/09/20 04:39:34;;;;;;;;;18.80;16.00;;;;;15.32;63.10;98594.28;6259512;27;96810;-63
2022/09/20 04:43:09;;;;;;;;;17.20;16.00;;;;;15.28;63.00;98597.78;6225451;27;99186;-63
2022/09/20 04:46:54;;;;;;;;;15.60;15.00;;;;;15.24;63.11;98591.25;6253139;27;96606;-63
2022/09/20 04:50:44;;;;;;;;;17.40;17.00;;;;;15.18;63.06;98596.63;6255740;27;98607;-63
2022/09/20 04:54:33;;;;;;;;;17.00;15.00;;;;;15.23;62.92;98592.31;6260036;27;97467;-64
2022/09/20 04:58:11;;;;;;;;;18.60;16.00;;;;;15.31;62.73;98595.38;6230666;27;99518;-64
2022/09/20 05:01:54;;;;;;;;;15.25;14.00;;;;;15.33;62.80;98597.84;6211465;27;99521;-62
2022/09/20 05:05:35;;;;;;;;;17.00;16.00;;;;;15.23;62.71;98604.00;6260475;27;97304;-63
2022/09/20 05:09:20;;;;;;;;;17.00;15.00;;;;;15.27;62.89;98609.72;6261941;27;96988;-63
2022/09/20 05:12:44;;;;;;;;;16.25;15.25;;;;;15.30;62.83;98615.44;6233280;27;97664;-62
2022/09/20 05:15:57;;;;;;;;;16.25;15.00;;;;;15.34;62.63;98619.31;6261554;27;96615;-63
2022/09/20 05:19:16;;;;;;;;;15.40;15.40;;;;;15.31;62.63;98617.09;6260594;27;96728;-63
2022/09/20 05:22:58;;;;;;;;;17.00;16.00;;;;;15.40;62.40;98617.44;6257974;27;97004;-63
2022/09/20 05:26:12;;;;;;;;;17.00;16.00;;;;;15.44;62.46;98619.38;6259729;27;97361;-63
2022/09/20 05:29:25;;;;;;;;;18.00;16.00;;;;;15.36;62.71;98617.13;6260491;27;97002;-64
2022/09/20 05:32:39;;;;;;;;;15.25;14.25;;;;;15.32;62.75;98623.34;6241574;27;98555;-63
2022/09/20 05:35:49;;;;;;;;;20.00;17.00;;;;;15.33;62.90;98623.09;6258078;27;97440;-63
2022/09/20 05:39:00;;;;;;;;;18.00;17.50;;;;;15.36;62.73;98625.28;6238322;27;98753;-62
2022/09/20 05:42:17;;;;;;;;;19.00;17.20;;;;;15.39;62.83;98627.50;6257620;27;96890;-62
2022/09/20 05:45:39;;;;;;;;;18.00;17.40;;;;;15.42;62.83;98635.13;6258067;27;96473;-63
2022/09/20 05:48:55;;;;;;;;;16.40;16.40;;;;;15.42;62.75;98634.31;6238527;27;97213;-62
2022/09/20 05:52:14;;;;;;;;;18.00;15.80;;;;;15.40;62.80;98634.56;6257675;27;97369;-64
2022/09/20 05:55:36;;;;;;;;;17.00;15.60;;;;;15.37;62.79;98639.69;6265082;27;98140;-63
2022/09/20 05:58:58;;;;;;;;;17.40;16.40;;;;;15.33;63.08;98641.28;6254152;27;98304;-64
2022/09/20 06:02:25;;;;;;;;;18.60;17.60;;;;;15.28;63.17;98639.34;6257644;27;97619;-62
2022/09/20 06:05:38;;;;;;;;;18.75;16.75;;;;;15.34;63.22;98642.94;6255427;27;97480;-63
2022/09/20 06:09:03;;;;;;;;;19.80;17.20;;;;;15.34;63.02;98643.75;6255060;27;97463;-63
2022/09/20 06:12:34;;;;;;;;;19.00;17.75;;;;;15.31;62.96;98646.97;6244581;27;97372;-63
2022/09/20 06:15:47;;;;;;;;;18.00;15.00;;;;;15.28;62.86;98628.50;6251701;27;97404;-63
2022/09/20 06:19:01;;;;;;;;;17.60;17.40;;;;;15.46;62.64;98644.41;6245061;27;98443;-63
2022/09/20 06:22:15;;;;;;;;;17.20;15.80;;;;;15.50;62.23;98650.13;6246189;27;99023;-63
2022/09/20 06:25:23;;;;;;;;;16.60;16.00;;;;;15.54;62.21;98648.56;6262639;27;97050;-64
2022/09/20 06:28:30;;;;;;;;;13.75;13.00;;;;;15.67;62.04;98653.56;6254386;27;96720;-63
2022/09/20 06:31:34;;;;;;;;;15.40;14.80;;;;;15.60;61.78;98656.50;6260936;27;98115;-63
2022/09/20 06:34:38;;;;;;;;;16.25;15.25;;;;;15.56;61.72;98662.69;6259816;27;96661;-63
2022/09/20 06:41:29;;;;;;;;;18.00;16.00;;;;;15.67;61.55;98663.63;6264128;27;96905;-62
2022/09/20 06:44:33;;;;;;;;;15.60;13.60;;;;;15.68;61.56;98670.69;6263799;27;96703;-63
2022/09/20 06:47:37;;;;;;;;;15.00;14.25;;;;;15.64;61.45;98667.66;6258258;27;96972;-63
2022/09/20 06:50:44;;;;;;;;;16.80;15.80;;;;;15.66;61.15;98670.13;6263561;27;96467;-64
2022/09/20 06:53:47;;;;;;;;;17.00;15.40;;;;;15.73;61.16;98671.56;6262601;27;97087;-63
2022/09/20 06:56:51;;;;;;;;;17.60;16.00;;;;;15.66;60.83;98673.66;6255476;27;97748;-63
2022/09/20 06:59:54;;;;;;;;;14.25;13.00;;;;;15.57;61.18;98676.03;6262285;27;97511;-62
2022/09/20 07:02:58;;;;;;;;;17.40;15.00;;;;;15.58;61.10;98677.69;6253025;27;97537;-63
2022/09/20 07:06:03;;;;;;;;;13.50;13.00;;;;;15.74;60.99;98672.34;6261972;27;97446;-63
2022/09/20 07:09:07;;;;;;;;;18.00;14.40;;;;;15.79;60.63;98680.53;6253997;27;98332;-63
2022/09/20 07:12:11;;;;;;;;;14.00;12.40;;;;;15.90;60.51;98691.25;6245908;27;99481;-63
2022/09/20 07:15:15;;;;;;;;;16.00;14.00;;;;;15.98;60.29;98704.34;6263666;27;98015;-63
2022/09/20 07:18:21;;;;;;;;;15.80;13.80;;;;;16.01;59.85;98705.75;6262736;27;97447;-63
2022/09/20 07:21:26;;;;;;;;;13.00;12.60;;;;;15.98;59.79;98703.53;6263484;27;96479;-61
2022/09/20 07:24:31;;;;;;;;;15.00;14.00;;;;;15.99;59.68;98708.72;6247354;27;97139;-63
2022/09/20 07:27:34;;;;;;;;;14.00;13.00;;;;;16.09;59.38;98707.97;6263600;27;97070;-60
2022/09/20 07:30:37;;;;;;;;;12.00;11.00;;;;;16.13;59.25;98717.22;6262168;27;96682;-61
2022/09/20 07:33:41;;;;;;;;;13.00;12.00;;;;;16.14;58.78;98715.31;6261058;27;98377;-61
2022/09/20 07:36:46;;;;;;;;;14.50;13.50;;;;;16.31;58.74;98716.00;6261413;27;98118;-61
2022/09/20 07:39:49;;;;;;;;;14.00;13.00;;;;;16.45;58.17;98704.38;6260881;27;96595;-61
2022/09/20 07:42:56;;;;;;;;;14.60;14.00;;;;;16.55;57.58;98727.28;6256660;27;97144;-61
2022/09/20 07:46:00;;;;;;;;;15.00;13.00;;;;;16.66;57.05;98726.28;6258045;27;97395;-62
2022/09/20 07:49:06;;;;;;;;;14.00;11.00;;;;;16.67;57.19;98726.00;6258725;27;97166;-61
2022/09/20 07:52:11;;;;;;;;;14.60;13.00;;;;;16.72;57.01;98731.47;6260237;27;97394;-61
2022/09/20 07:55:15;;;;;;;;;13.50;12.00;;;;;16.84;56.64;98734.00;6242902;27;97294;-61
2022/09/20 07:58:18;;;;;;;;;11.00;11.00;;;;;16.90;56.41;98730.22;6262498;27;97426;-63
2022/09/20 08:01:22;;;;;;;;;12.00;12.00;;;;;16.99;56.02;98725.06;6242985;27;97602;-63
2022/09/20 08:04:25;;;;;;;;;12.00;11.00;;;;;16.95;55.40;98732.13;6263125;27;96248;-61
2022/09/20 08:07:30;;;;;;;;;10.80;9.80;;;;;17.16;55.77;98736.56;6251889;27;96930;-63
2022/09/20 08:10:34;;;;;;;;;12.40;12.00;;;;;18.16;54.04;98738.63;6263010;27;97066;-62
2022/09/20 08:13:38;;;;;;;;;10.20;9.20;;;;;19.12;52.78;98745.72;6262293;27;96666;-61
2022/09/20 08:17:01;;;;;;;;;11.60;10.60;;;;;19.38;50.63;98740.97;6259791;27;96924;-61
2022/09/20 08:20:05;;;;;;;;;12.00;11.00;;;;;19.76;47.90;98737.44;6259901;27;97475;-62
2022/09/20 08:23:10;;;;;;;;;11.00;10.75;;;;;20.11;47.51;98739.09;6243933;27;96881;-62
2022/09/20 08:26:27;;;;;;;;;11.40;10.00;;;;;20.05;46.43;98732.00;6262637;27;97261;-63
2022/09/20 08:29:31;;;;;;;;;9.00;9.00;;;;;20.69;44.58;98737.16;6262023;27;96709;-61
2022/09/20 08:32:34;;;;;;;;;9.20;8.20;;;;;21.15;44.04;98742.13;6244564;27;98676;-62
2022/09/20 08:35:38;;;;;;;;;9.00;9.00;;;;;21.04;44.12;98746.06;6261905;27;96693;-63
2022/09/20 08:38:43;;;;;;;;;11.00;10.00;;;;;20.68;44.68;98742.91;6261805;27;97141;-61
2022/09/20 08:42:18;;;;;;;;;11.00;10.00;;;;;20.24;44.25;98751.28;6258852;27;97479;-62
2022/09/20 08:45:24;;;;;;;;;9.60;9.00;;;;;19.83;45.47;98750.81;6242045;27;99600;-65
2022/09/20 08:48:45;;;;;;;;;9.00;9.00;;;;;19.65;46.22;98735.88;6257778;27;96813;-64
2022/09/20 08:51:50;;;;;;;;;10.00;9.00;;;;;19.44;46.24;98759.00;6243470;27;97223;-65
2022/09/20 08:54:58;;;;;;;;;8.00;7.00;;;;;19.29;46.54;98759.06;6226426;27;97861;-64
2022/09/20 08:58:05;;;;;;;;;7.80;7.80;;;;;19.36;46.90;98757.63;6261380;27;97455;-61
2022/09/20 09:01:18;;;;;;;;;8.00;7.40;;;;;19.34;45.73;98759.84;6235885;27;97338;-63
2022/09/20 09:04:24;;;;;;;;;9.00;8.00;;;;;19.53;45.84;98749.09;6259021;27;97917;-62
2022/09/20 09:07:27;;;;;;;;;9.00;9.00;;;;;19.75;45.52;98752.22;6260610;27;97160;-62
2022/09/20 09:10:36;;;;;;;;;8.00;7.00;;;;;19.61;45.11;98748.50;6232863;27;96682;-61
2022/09/20 09:13:54;;;;;;;;;8.00;7.00;;;;;19.49;44.69;98745.31;6261328;27;97050;-63
2022/09/20 09:16:59;;;;;;;;;7.00;7.00;;;;;20.18;44.18;98747.75;6261061;27;96747;-63
2022/09/20 09:20:17;;;;;;;;;7.75;6.75;;;;;20.62;42.44;98747.63;6259751;27;97482;-62
2022/09/20 09:23:25;;;;;;;;;7.20;7.00;;;;;21.02;41.74;98740.06;6261009;27;97245;-62
2022/09/20 09:26:36;;;;;;;;;7.00;7.00;;;;;21.88;40.43;98736.13;6261763;27;97618;-62
2022/09/20 09:29:49;;;;;;;;;9.00;9.00;;;;;23.15;38.11;98735.47;6247108;27;97460;-62
2022/09/20 09:32:53;;;;;;;;;7.00;7.00;;;;;23.94;37.23;98737.81;6265979;27;96760;-62
2022/09/20 09:35:59;;;;;;;;;7.75;7.00;;;;;24.55;36.18;98726.06;6247205;27;96720;-62
2022/09/20 09:39:17;;;;;;;;;9.00;8.25;;;;;24.09;36.17;98710.69;6264451;27;97198;-62
2022/09/20 09:42:27;;;;;;;;;8.00;8.00;;;;;25.51;35.71;98722.50;6264676;27;96841;-61
2022/09/20 09:45:33;;;;;;;;;8.00;7.40;;;;;26.20;33.23;98732.38;6266165;27;96739;-62
2022/09/20 09:48:36;;;;;;;;;6.40;6.40;;;;;26.79;31.13;98740.03;6265376;27;97421;-61
2022/09/20 09:52:00;;;;;;;;;9.00;9.00;;;;;26.97;31.11;98734.16;6265139;27;96654;-62
2022/09/20 09:55:04;;;;;;;;;7.60;7.60;;;;;27.31;31.29;98735.94;6238624;27;97388;-61
2022/09/20 09:58:21;;;;;;;;;8.00;7.25;;;;;27.65;29.87;98721.06;6264528;27;97385;-62
2022/09/20 10:01:38;;;;;;;;;7.60;6.60;;;;;27.14;31.44;98716.63;6244712;27;96652;-62
2022/09/20 10:04:49;;;;;;;;;6.20;6.00;;;;;26.81;30.19;98715.66;6264492;27;97777;-63
2022/09/20 10:08:10;;;;;;;;;7.60;6.60;;;;;26.28;30.62;98711.44;6265372;27;96944;-62
2022/09/20 10:11:28;;;;;;;;;5.40;5.40;;;;;27.29;29.94;98718.84;6259492;27;96593;-61
2022/09/20 10:14:50;;;;;;;;;8.00;7.00;;;;;27.68;28.70;98705.72;6258927;27;96938;-62
2022/09/20 10:18:09;;;;;;;;;6.00;6.00;;;;;27.92;27.96;98711.34;6261898;27;96665;-62
2022/09/20 10:21:27;;;;;;;;;7.00;6.00;;;;;27.80;27.42;98712.13;6256566;27;96715;-62
2022/09/20 10:24:46;;;;;;;;;6.00;5.00;;;;;27.64;28.55;98685.38;6261862;27;98175;-62
2022/09/20 10:28:09;;;;;;;;;6.60;5.20;;;;;26.99;29.51;98686.78;6264821;27;97442;-63
2022/09/20 10:31:26;;;;;;;;;5.00;5.00;;;;;27.12;29.50;98696.81;6262808;27;96458;-62
2022/09/20 10:35:03;;;;;;;;;4.60;4.60;;;;;26.56;30.10;98709.06;6264603;27;96595;-63
2022/09/20 10:38:14;;;;;;;;;7.00;7.00;;;;;26.18;31.27;98707.06;6263172;27;97482;-62
2022/09/20 10:45:07;;;;;;;;;6.00;5.00;;;;;24.75;33.97;98713.66;6259903;27;96423;-62
2022/09/20 10:48:20;;;;;;;;;5.20;5.00;;;;;24.15;34.00;98717.72;6241543;27;97069;-62
2022/09/20 10:51:42;;;;;;;;;7.00;6.00;;;;;23.66;34.80;98718.66;6255077;27;97557;-61
2022/09/20 10:55:04;;;;;;;;;5.60;5.60;;;;;23.64;35.71;98717.34;6250821;27;96738;-63
2022/09/20 10:58:35;;;;;;;;;4.40;4.00;;;;;23.52;35.17;98717.88;6250843;27;97423;-62
2022/09/20 11:01:48;;;;;;;;;6.00;6.00;;;;;23.33;36.28;98729.00;6260173;27;97793;-63
2022/09/20 11:05:14;;;;;;;;;8.00;7.00;;;;;22.93;36.72;98731.78;6264156;27;97435;-61
2022/09/20 11:08:21;;;;;;;;;7.00;7.00;;;;;22.59;38.59;98735.72;6255798;27;97645;-62
2022/09/20 11:11:31;;;;;;;;;7.00;6.00;;;;;22.09;39.46;98723.72;6259882;27;97193;-63
2022/09/20 11:14:40;;;;;;;;;7.25;7.25;;;;;21.83;39.69;98726.06;6245625;27;96671;-61
2022/09/20 11:17:53;;;;;;;;;9.00;9.00;;;;;21.64;39.89;98724.44;6245438;27;98683;-61
2022/09/20 11:21:10;;;;;;;;;7.00;7.00;;;;;21.69;40.92;98716.13;6264188;27;96547;-62
2022/09/20 11:24:26;;;;;;;;;8.00;7.40;;;;;21.80;40.67;98717.56;6263813;27;97607;-61
2022/09/20 11:27:36;;;;;;;;;6.00;5.25;;;;;21.86;39.75;98716.38;6242869;27;98407;-61
2022/09/20 11:30:50;;;;;;;;;5.00;5.00;;;;;21.85;40.57;98715.56;6245188;27;97310;-62
2022/09/20 11:33:59;;;;;;;;;4.40;4.00;;;;;22.42;37.99;98730.00;6259254;27;96507;-61
2022/09/20 11:37:03;;;;;;;;;5.00;5.00;;;;;23.40;35.40;98727.78;6262466;27;97955;-63
2022/09/20 11:40:17;;;;;;;;;4.00;4.00;;;;;24.30;33.61;98735.00;6251853;27;96669;-64
2022/09/20 11:43:30;;;;;;;;;4.00;4.00;;;;;24.99;31.96;98725.94;6262710;27;96516;-64
2022/09/20 11:46:40;;;;;;;;;6.00;6.00;;;;;25.94;30.50;98725.28;6260952;27;97442;-64
2022/09/20 11:49:58;;;;;;;;;4.60;4.60;;;;;26.49;29.12;98720.63;6260482;27;96825;-64
2022/09/20 11:53:21;;;;;;;;;5.00;5.00;;;;;26.85;29.50;98720.19;6261528;27;96908;-63
2022/09/20 11:56:27;;;;;;;;;4.00;4.00;;;;;26.54;29.59;98731.53;6238139;27;96793;-63
2022/09/20 11:59:35;;;;;;;;;5.00;5.00;;;;;25.81;30.41;98724.31;6262315;27;97567;-64
2022/09/20 12:02:46;;;;;;;;;7.00;6.00;;;;;24.99;31.68;98733.41;6263652;27;97434;-64
2022/09/20 12:05:57;;;;;;;;;5.00;5.00;;;;;24.51;32.63;98725.91;6262263;27;97356;-66
2022/09/20 12:09:05;;;;;;;;;5.00;5.00;;;;;23.99;33.63;98737.69;6262265;27;96643;-64
2022/09/20 12:12:26;;;;;;;;;6.00;6.00;;;;;23.45;35.05;98739.53;6257072;27;97556;-64
2022/09/20 12:15:32;;;;;;;;;5.00;5.00;;;;;23.12;35.59;98736.06;6238921;27;98111;-64
2022/09/20 12:19:05;;;;;;;;;5.00;5.00;;;;;23.57;35.59;98730.69;6262369;27;97490;-64
2022/09/20 12:22:26;;;;;;;;;5.60;5.60;;;;;24.38;35.10;98721.28;6244573;27;97755;-66
2022/09/20 12:25:39;;;;;;;;;4.00;3.00;;;;;25.05;33.00;98725.81;6263305;27;96952;-64
2022/09/20 12:28:44;;;;;;;;;5.50;5.00;;;;;25.43;32.75;98721.34;6262375;27;96395;-64
2022/09/20 12:31:49;;;;;;;;;4.00;4.00;;;;;25.88;31.95;98722.69;6257958;27;97496;-63
2022/09/20 12:34:52;;;;;;;;;5.40;5.40;;;;;26.25;30.63;98714.84;6261612;27;97402;-66
2022/09/20 12:37:55;;;;;;;;;4.00;4.00;;;;;26.60;29.91;98716.38;6262011;27;97586;-61
2022/09/20 12:41:03;;;;;;;;;4.00;4.00;;;;;26.77;29.43;98712.75;6257270;27;96555;-63
2022/09/20 12:44:25;;;;;;;;;4.00;4.00;;;;;26.91;29.60;98718.88;6260607;27;96999;-62
2022/09/20 12:47:32;;;;;;;;;4.33;4.33;;;;;27.13;29.55;98712.25;6243832;27;97426;-63
2022/09/20 12:54:03;;;;;;;;;4.00;3.50;;;;;26.66;30.02;98708.72;6261627;27;96477;-62
2022/09/20 12:57:26;;;;;;;;;4.00;4.00;;;;;26.40;29.97;98716.28;6256075;27;97179;-62
2022/09/20 13:00:37;;;;;;;;;4.00;4.00;;;;;26.65;29.83;98701.56;6235047;27;97788;-63
2022/09/20 13:03:42;;;;;;;;;4.00;3.00;;;;;26.57;28.93;98708.75;6259544;27;97419;-63
2022/09/20 13:06:45;;;;;;;;;3.40;3.40;;;;;26.57;28.75;98707.94;6259095;27;97605;-63
2022/09/20 13:09:50;;;;;;;;;4.00;3.60;;;;;26.41;28.97;98704.09;6254605;27;97128;-63
2022/09/20 13:13:00;;;;;;;;;5.00;4.00;;;;;26.05;29.07;98721.84;6241056;27;97475;-63
2022/09/20 13:16:06;;;;;;;;;3.00;3.00;;;;;25.31;28.93;98737.72;6240850;27;97757;-63
2022/09/20 13:19:16;;;;;;;;;3.00;3.00;;;;;24.34;29.39;98728.53;6260696;27;97997;-64
2022/09/20 13:22:25;;;;;;;;;3.00;2.40;;;;;23.69;30.63;98742.00;6259587;27;97011;-63
2022/09/20 13:25:30;;;;;;;;;2.00;1.75;;;;;23.14;31.13;98744.81;6261686;27;96555;-63
2022/09/20 13:28:44;;;;;;;;;2.00;2.00;;;;;22.52;32.27;98727.06;6229498;27;97730;-63
2022/09/20 13:31:47;;;;;;;;;3.00;2.75;;;;;22.19;33.49;98734.53;6258582;27;97422;-63
2022/09/20 13:35:05;;;;;;;;;2.00;2.00;;;;;22.00;33.60;98737.31;6259837;27;97450;-63
2022/09/20 13:38:10;;;;;;;;;2.00;2.00;;;;;21.93;34.27;98739.66;6236672;27;96673;-63
2022/09/20 13:41:14;;;;;;;;;1.50;1.50;;;;;21.94;34.36;98741.25;6262189;27;96419;-64
2022/09/20 13:44:20;;;;;;;;;2.00;2.00;;;;;21.94;34.10;98735.75;6240806;27;98426;-64
2022/09/20 13:47:28;;;;;;;;;1.60;1.20;;;;;21.66;34.02;98738.66;6261695;27;97122;-63
2022/09/20 13:50:36;;;;;;;;;2.00;2.00;;;;;21.50;34.52;98741.63;6262236;27;97547;-64
2022/09/20 13:53:45;;;;;;;;;2.60;2.60;;;;;21.61;34.23;98737.63;6247915;27;97477;-63
2022/09/20 13:56:50;;;;;;;;;1.80;1.80;;;;;21.79;34.62;98744.22;6242927;27;96721;-63
2022/09/20 13:59:56;;;;;;;;;2.00;2.00;;;;;21.77;35.17;98731.91;6249977;27;97442;-63
2022/09/20 14:03:00;;;;;;;;;2.00;2.00;;;;;21.74;36.09;98736.06;6261633;27;97679;-63
2022/09/20 14:06:11;;;;;;;;;3.00;3.00;;;;;21.59;36.59;98731.63;6261895;27;97068;-63
2022/09/20 14:09:21;;;;;;;;;2.00;2.00;;;;;21.47;36.88;98728.50;6241640;27;97354;-64
2022/09/20 14:12:26;;;;;;;;;1.60;1.60;;;;;21.39;35.87;98726.44;6257735;27;96488;-64
2022/09/20 14:15:36;;;;;;;;;2.00;2.00;;;;;21.68;36.22;98728.22;6240553;27;98107;-63
2022/09/20 14:18:41;;;;;;;;;2.40;2.40;;;;;21.99;35.28;98740.38;6265294;27;96677;-64
2022/09/20 14:21:45;;;;;;;;;1.00;1.00;;;;;22.24;35.11;98739.09;6265829;27;97496;-64
2022/09/20 14:25:00;;;;;;;;;1.00;1.00;;;;;22.39;35.11;98742.41;6262291;27;97816;-63
2022/09/20 14:28:17;;;;;;;;;3.00;3.00;;;;;22.48;35.82;98753.50;6244348;27;97441;-63
2022/09/20 14:31:25;;;;;;;;;2.00;2.00;;;;;22.31;36.88;98742.28;6242223;27;99648;-63
2022/09/20 14:34:28;;;;;;;;;2.00;2.00;;;;;22.13;36.41;98735.75;6263528;27;97429;-63
2022/09/20 14:37:36;;;;;;;;;2.00;1.00;;;;;22.28;36.59;98751.16;6261030;27;97523;-63
2022/09/20 14:40:43;;;;;;;;;2.00;2.00;;;;;22.26;35.80;98748.69;6263681;27;97402;-63
2022/09/20 14:43:46;;;;;;;;;1.00;1.00;;;;;22.11;36.91;98746.19;6244880;27;96867;-63
2022/09/20 14:46:53;;;;;;;;;3.00;3.00;;;;;21.84;37.06;98743.34;6262528;27;97408;-63
2022/09/20 14:49:57;;;;;;;;;4.00;3.00;;;;;21.75;37.52;98748.66;6260887;27;97481;-63
2022/09/20 14:53:20;;;;;;;;;3.00;3.00;;;;;21.46;38.24;98759.78;6261584;27;98015;-63
2022/09/20 14:56:33;;;;;;;;;4.00;4.00;;;;;21.23;38.79;98754.34;6259883;27;96613;-63
2022/09/20 14:59:38;;;;;;;;;4.00;4.00;;;;;20.93;39.32;98758.25;6261965;27;97373;-63
2022/09/20 15:02:45;;;;;;;;;3.60;3.40;;;;;20.70;39.84;98763.47;6231735;27;97455;-63
2022/09/20 15:05:50;;;;;;;;;3.50;3.00;;;;;20.60;40.21;98763.56;6254373;27;97012;-63
2022/09/20 15:08:53;;;;;;;;;5.00;5.00;;;;;20.48;40.46;98765.03;6264425;27;96895;-63
2022/09/20 15:12:04;;;;;;;;;5.00;3.60;;;;;20.20;40.88;98758.44;6261223;27;96596;-62